Decoded Metar for KHAF (HALF MOON BAY in CA, USA) (IATA:N/A) | Meteo·Mobile Aviation Weather
aviador You're here:

KHAF Decoded Metar

HALF MOON BAY in CA, USA
Report Time2019-03-21 16:20:00
UTC Time2019-03-21 16:26:42
Flight Rules vfr VFR
Wind280° at 03 kt
W.Decomp.*RWY 30: 2.5 kt HW 1.7 kt LCW
W.Rank280° ranks 16
Current wind is below 280° avg. (5.7)
Visibility9999 m
Phenomena:N/A
Clouds:N/A
Expected CloudBase > 1,600 ft AGL from Temp-Dew spread
CeilingNone
Temp12°C (ISA -3)
Dew Point08°C (77% RH)
AAT10.5°C
QNH1020 hPa
Density Alt-367 ft
Elevation66 ft
Report Wrong Elevation
Raw Report
KHAF 211620Z AUTO 28003KT 9SM CLR 12/08 A3013 RMK AO2=

Extra information for KHAF:More info

Metar Taf Metar & Taf Last 4 Metars F.Rules Stats Wind Profile Meteogram Temp Stats Airport Information Weather charts Add Link Nearby VenuesMetar ALERT Operation Metar Decoded Social comments

AIRNAV info for KHAF